sensor_id;sensor_type;location;lat;lon;timestamp;pressure;altitude;pressure_sealevel;temperature;humidity
25238;BME280;13185;50.872;5.306;2022-08-06T00:02:14;102231.41;;;14.26;74.16
25238;BME280;13185;50.872;5.306;2022-08-06T00:04:39;102242.56;;;14.20;74.29
25238;BME280;13185;50.872;5.306;2022-08-06T00:07:05;102243.78;;;14.14;73.59
25238;BME280;13185;50.872;5.306;2022-08-06T00:09:30;102248.59;;;14.09;74.36
25238;BME280;13185;50.872;5.306;2022-08-06T00:12:00;102247.38;;;13.99;74.24
25238;BME280;13185;50.872;5.306;2022-08-06T00:14:29;102250.41;;;13.93;74.76
25238;BME280;13185;50.872;5.306;2022-08-06T00:16:56;102254.94;;;13.92;75.21
25238;BME280;13185;50.872;5.306;2022-08-06T00:19:22;102255.09;;;13.89;75.00
25238;BME280;13185;50.872;5.306;2022-08-06T00:21:48;102255.19;;;13.88;75.53
25238;BME280;13185;50.872;5.306;2022-08-06T00:24:13;102256.31;;;13.83;74.96
25238;BME280;13185;50.872;5.306;2022-08-06T00:26:39;102260.94;;;13.81;75.07
25238;BME280;13185;50.872;5.306;2022-08-06T00:29:05;102264.75;;;13.77;75.81
25238;BME280;13185;50.872;5.306;2022-08-06T00:31:31;102252.38;;;13.73;76.06
25238;BME280;13185;50.872;5.306;2022-08-06T00:33:57;102260.84;;;13.67;76.20
25238;BME280;13185;50.872;5.306;2022-08-06T00:36:26;102261.06;;;13.63;76.57
25238;BME280;13185;50.872;5.306;2022-08-06T00:38:52;102266.97;;;13.53;76.16
25238;BME280;13185;50.872;5.306;2022-08-06T00:41:19;102277.16;;;13.48;76.00
25238;BME280;13185;50.872;5.306;2022-08-06T00:43:45;102274.44;;;13.48;76.27
25238;BME280;13185;50.872;5.306;2022-08-06T00:46:10;102269.94;;;13.49;76.16
25238;BME280;13185;50.872;5.306;2022-08-06T00:48:36;102278.19;;;13.46;76.63
25238;BME280;13185;50.872;5.306;2022-08-06T00:51:01;102277.38;;;13.44;76.86
25238;BME280;13185;50.872;5.306;2022-08-06T00:53:27;102282.06;;;13.40;77.07
25238;BME280;13185;50.872;5.306;2022-08-06T00:55:53;102277.91;;;13.35;77.17
25238;BME280;13185;50.872;5.306;2022-08-06T00:58:18;102280.81;;;13.30;77.48
25238;BME280;13185;50.872;5.306;2022-08-06T01:00:44;102288.31;;;13.25;77.93
25238;BME280;13185;50.872;5.306;2022-08-06T01:03:09;102284.09;;;13.19;77.99
25238;BME280;13185;50.872;5.306;2022-08-06T01:05:36;102290.50;;;13.17;78.19
25238;BME280;13185;50.872;5.306;2022-08-06T01:08:02;102284.31;;;13.15;78.09
25238;BME280;13185;50.872;5.306;2022-08-06T01:10:28;102286.19;;;13.13;78.24
25238;BME280;13185;50.872;5.306;2022-08-06T01:12:53;102288.28;;;13.08;78.44
25238;BME280;13185;50.872;5.306;2022-08-06T01:15:19;102298.44;;;13.03;78.38
25238;BME280;13185;50.872;5.306;2022-08-06T01:17:53;102297.72;;;12.99;78.34
25238;BME280;13185;50.872;5.306;2022-08-06T01:28:31;102288.44;;;12.87;79.06
25238;BME280;13185;50.872;5.306;2022-08-06T01:31:03;102293.91;;;12.86;79.25
25238;BME280;13185;50.872;5.306;2022-08-06T01:33:50;102298.59;;;12.82;79.33
25238;BME280;13185;50.872;5.306;2022-08-06T01:36:22;102297.78;;;12.80;79.55
25238;BME280;13185;50.872;5.306;2022-08-06T01:38:52;102299.69;;;12.78;79.84
25238;BME280;13185;50.872;5.306;2022-08-06T01:41:22;102292.66;;;12.76;79.94
25238;BME280;13185;50.872;5.306;2022-08-06T01:44:05;102292.88;;;12.71;80.34
25238;BME280;13185;50.872;5.306;2022-08-06T01:46:33;102295.88;;;12.65;80.77
25238;BME280;13185;50.872;5.306;2022-08-06T01:49:01;102301.34;;;12.63;80.71
25238;BME280;13185;50.872;5.306;2022-08-06T01:51:28;102293.50;;;12.59;81.16
25238;BME280;13185;50.872;5.306;2022-08-06T01:53:54;102302.69;;;12.55;81.30
25238;BME280;13185;50.872;5.306;2022-08-06T01:56:22;102303.84;;;12.49;81.38
25238;BME280;13185;50.872;5.306;2022-08-06T01:58:49;102304.00;;;12.46;81.58
25238;BME280;13185;50.872;5.306;2022-08-06T02:01:17;102304.97;;;12.45;82.03
25238;BME280;13185;50.872;5.306;2022-08-06T02:03:47;102305.19;;;12.40;81.89
25238;BME280;13185;50.872;5.306;2022-08-06T02:06:18;102308.09;;;12.36;82.18
25238;BME280;13185;50.872;5.306;2022-08-06T02:08:46;102307.38;;;12.32;81.99
25238;BME280;13185;50.872;5.306;2022-08-06T02:11:11;102307.53;;;12.29;81.93
25238;BME280;13185;50.872;5.306;2022-08-06T02:13:39;102305.78;;;12.28;82.03
25238;BME280;13185;50.872;5.306;2022-08-06T02:16:07;102314.97;;;12.24;81.93
25238;BME280;13185;50.872;5.306;2022-08-06T02:18:36;102308.72;;;12.24;82.00
25238;BME280;13185;50.872;5.306;2022-08-06T02:21:15;102308.00;;;12.20;81.54
25238;BME280;13185;50.872;5.306;2022-08-06T02:23:43;102303.78;;;12.14;81.52
25238;BME280;13185;50.872;5.306;2022-08-06T02:26:09;102309.31;;;12.11;81.56
25238;BME280;13185;50.872;5.306;2022-08-06T02:28:36;102309.50;;;12.07;81.51
25238;BME280;13185;50.872;5.306;2022-08-06T02:31:03;102307.84;;;12.04;81.92
25238;BME280;13185;50.872;5.306;2022-08-06T02:33:29;102317.88;;;12.01;81.96
25238;BME280;13185;50.872;5.306;2022-08-06T02:41:08;102314.69;;;11.93;82.10
25238;BME280;13185;50.872;5.306;2022-08-06T02:43:39;102316.69;;;11.88;82.45
25238;BME280;13185;50.872;5.306;2022-08-06T02:46:16;102322.22;;;11.84;82.48
25238;BME280;13185;50.872;5.306;2022-08-06T02:48:50;102322.50;;;11.78;82.28
25238;BME280;13185;50.872;5.306;2022-08-06T02:51:25;102323.28;;;11.62;82.57
25238;BME280;13185;50.872;5.306;2022-08-06T02:54:08;102322.47;;;11.60;82.53
25238;BME280;13185;50.872;5.306;2022-08-06T02:56:37;102325.25;;;11.58;82.89
25238;BME280;13185;50.872;5.306;2022-08-06T02:59:05;102317.28;;;11.55;83.50
25238;BME280;13185;50.872;5.306;2022-08-06T03:01:34;102319.88;;;11.58;83.34
25238;BME280;13185;50.872;5.306;2022-08-06T03:04:01;102336.84;;;11.59;83.31
25238;BME280;13185;50.872;5.306;2022-08-06T03:06:31;102323.50;;;11.57;83.48
25238;BME280;13185;50.872;5.306;2022-08-06T03:08:59;102324.38;;;11.57;83.00
25238;BME280;13185;50.872;5.306;2022-08-06T03:11:29;102334.38;;;11.54;83.45
25238;BME280;13185;50.872;5.306;2022-08-06T03:13:56;102333.56;;;11.52;83.85
25238;BME280;13185;50.872;5.306;2022-08-06T03:16:23;102326.44;;;11.51;83.51
25238;BME280;13185;50.872;5.306;2022-08-06T03:18:52;102336.25;;;11.52;83.20
25238;BME280;13185;50.872;5.306;2022-08-06T03:21:21;102333.72;;;11.49;83.10
25238;BME280;13185;50.872;5.306;2022-08-06T03:23:48;102326.66;;;11.46;82.87
25238;BME280;13185;50.872;5.306;2022-08-06T03:26:14;102341.88;;;11.46;82.97
25238;BME280;13185;50.872;5.306;2022-08-06T03:28:40;102338.41;;;11.44;82.78
25238;BME280;13185;50.872;5.306;2022-08-06T03:31:06;102340.28;;;11.42;82.66
25238;BME280;13185;50.872;5.306;2022-08-06T03:33:32;102344.00;;;11.39;82.63
25238;BME280;13185;50.872;5.306;2022-08-06T03:36:00;102338.78;;;11.36;82.97
25238;BME280;13185;50.872;5.306;2022-08-06T03:38:26;102342.44;;;11.34;83.09
25238;BME280;13185;50.872;5.306;2022-08-06T03:40:53;102341.78;;;11.28;83.50
25238;BME280;13185;50.872;5.306;2022-08-06T03:43:19;102350.00;;;11.25;83.70
25238;BME280;13185;50.872;5.306;2022-08-06T03:45:52;102348.34;;;11.21;83.95
25238;BME280;13185;50.872;5.306;2022-08-06T03:48:25;102351.13;;;11.20;83.70
25238;BME280;13185;50.872;5.306;2022-08-06T03:50:53;102351.19;;;11.18;83.61
25238;BME280;13185;50.872;5.306;2022-08-06T03:53:22;102347.63;;;11.18;83.73
25238;BME280;13185;50.872;5.306;2022-08-06T03:55:49;102350.38;;;11.16;83.54
25238;BME280;13185;50.872;5.306;2022-08-06T03:58:16;102356.69;;;11.15;83.62
25238;BME280;13185;50.872;5.306;2022-08-06T04:00:51;102355.13;;;11.10;84.09
25238;BME280;13185;50.872;5.306;2022-08-06T04:03:18;102356.16;;;11.07;84.52
25238;BME280;13185;50.872;5.306;2022-08-06T04:05:44;102351.72;;;11.06;84.48
25238;BME280;13185;50.872;5.306;2022-08-06T04:08:11;102358.91;;;11.06;84.48
25238;BME280;13185;50.872;5.306;2022-08-06T04:10:43;102356.34;;;11.03;84.71
25238;BME280;13185;50.872;5.306;2022-08-06T04:13:11;102362.66;;;11.02;84.55
25238;BME280;13185;50.872;5.306;2022-08-06T04:15:37;102364.47;;;11.01;84.58
25238;BME280;13185;50.872;5.306;2022-08-06T04:18:09;102358.28;;;10.99;84.80
25238;BME280;13185;50.872;5.306;2022-08-06T04:20:35;102362.78;;;10.98;84.89
25238;BME280;13185;50.872;5.306;2022-08-06T04:23:02;102361.91;;;10.98;85.16
25238;BME280;13185;50.872;5.306;2022-08-06T04:25:34;102364.59;;;10.98;85.23
25238;BME280;13185;50.872;5.306;2022-08-06T04:28:02;102369.97;;;10.98;85.07
25238;BME280;13185;50.872;5.306;2022-08-06T04:30:29;102362.84;;;10.97;85.44
25238;BME280;13185;50.872;5.306;2022-08-06T04:32:56;102370.69;;;11.02;85.42
25238;BME280;13185;50.872;5.306;2022-08-06T04:35:22;102367.16;;;11.01;85.50
25238;BME280;13185;50.872;5.306;2022-08-06T04:37:49;102371.72;;;10.99;85.81
25238;BME280;13185;50.872;5.306;2022-08-06T04:40:15;102366.41;;;10.97;86.18
25238;BME280;13185;50.872;5.306;2022-08-06T04:42:41;102369.03;;;10.99;86.30
25238;BME280;13185;50.872;5.306;2022-08-06T04:45:08;102369.81;;;11.01;86.12
25238;BME280;13185;50.872;5.306;2022-08-06T04:47:35;102371.56;;;11.02;85.89
25238;BME280;13185;50.872;5.306;2022-08-06T04:50:02;102375.06;;;11.04;85.72
25238;BME280;13185;50.872;5.306;2022-08-06T04:52:28;102376.69;;;11.08;85.74
25238;BME280;13185;50.872;5.306;2022-08-06T04:54:54;102383.81;;;11.09;85.90
25238;BME280;13185;50.872;5.306;2022-08-06T04:57:19;102382.00;;;11.10;85.98
25238;BME280;13185;50.872;5.306;2022-08-06T04:59:45;102386.28;;;11.14;86.14
25238;BME280;13185;50.872;5.306;2022-08-06T05:02:11;102389.78;;;11.16;86.27
25238;BME280;13185;50.872;5.306;2022-08-06T05:04:37;102383.34;;;11.20;86.33
25238;BME280;13185;50.872;5.306;2022-08-06T05:07:26;102389.34;;;11.26;86.30
25238;BME280;13185;50.872;5.306;2022-08-06T05:09:55;102388.03;;;11.35;86.49
25238;BME280;13185;50.872;5.306;2022-08-06T05:12:32;102405.38;;;11.48;86.53
25238;BME280;13185;50.872;5.306;2022-08-06T05:15:11;102398.06;;;11.52;86.52
25238;BME280;13185;50.872;5.306;2022-08-06T05:17:53;102395.09;;;11.58;86.20
25238;BME280;13185;50.872;5.306;2022-08-06T05:20:21;102400.06;;;11.67;85.81
25238;BME280;13185;50.872;5.306;2022-08-06T05:22:49;102395.03;;;11.80;85.50
25238;BME280;13185;50.872;5.306;2022-08-06T05:25:18;102405.28;;;11.91;84.79
25238;BME280;13185;50.872;5.306;2022-08-06T05:27:44;102402.13;;;12.01;84.64
25238;BME280;13185;50.872;5.306;2022-08-06T05:30:10;102402.63;;;12.09;84.17
25238;BME280;13185;50.872;5.306;2022-08-06T05:32:45;102397.66;;;12.19;83.95
25238;BME280;13185;50.872;5.306;2022-08-06T05:35:12;102406.19;;;12.29;84.08
25238;BME280;13185;50.872;5.306;2022-08-06T05:37:38;102411.44;;;12.32;84.50
25238;BME280;13185;50.872;5.306;2022-08-06T05:40:05;102400.28;;;12.39;84.78
25238;BME280;13185;50.872;5.306;2022-08-06T05:42:31;102404.44;;;12.47;84.75
25238;BME280;13185;50.872;5.306;2022-08-06T05:44:56;102406.69;;;12.56;84.80
25238;BME280;13185;50.872;5.306;2022-08-06T05:47:28;102410.44;;;12.70;85.04
25238;BME280;13185;50.872;5.306;2022-08-06T05:50:04;102415.78;;;12.89;84.40
25238;BME280;13185;50.872;5.306;2022-08-06T05:52:42;102411.22;;;13.09;83.99
25238;BME280;13185;50.872;5.306;2022-08-06T05:55:18;102419.38;;;13.26;83.14
25238;BME280;13185;50.872;5.306;2022-08-06T05:57:48;102418.25;;;13.47;82.97
25238;BME280;13185;50.872;5.306;2022-08-06T06:00:18;102413.19;;;13.74;82.35
25238;BME280;13185;50.872;5.306;2022-08-06T06:02:47;102421.38;;;14.06;82.06
25238;BME280;13185;50.872;5.306;2022-08-06T06:05:14;102416.47;;;14.30;81.11
25238;BME280;13185;50.872;5.306;2022-08-06T06:07:40;102417.47;;;14.44;79.96
25238;BME280;13185;50.872;5.306;2022-08-06T06:10:07;102413.47;;;14.52;79.44
25238;BME280;13185;50.872;5.306;2022-08-06T06:12:34;102416.53;;;14.61;78.68
25238;BME280;13185;50.872;5.306;2022-08-06T06:15:04;102416.44;;;14.63;78.07
25238;BME280;13185;50.872;5.306;2022-08-06T06:23:09;102444.22;;;14.81;78.40
25238;BME280;13185;50.872;5.306;2022-08-06T06:34:05;102441.44;;;14.82;79.01
25238;BME280;13185;50.872;5.306;2022-08-06T06:36:42;102442.88;;;15.04;78.77
25238;BME280;13185;50.872;5.306;2022-08-06T06:39:39;102436.41;;;15.22;78.62
25238;BME280;13185;50.872;5.306;2022-08-06T06:42:10;102443.78;;;15.34;78.03
25238;BME280;13185;50.872;5.306;2022-08-06T06:44:57;102444.25;;;15.41;77.83
25238;BME280;13185;50.872;5.306;2022-08-06T06:47:45;102443.47;;;15.39;77.67
25238;BME280;13185;50.872;5.306;2022-08-06T06:50:22;102448.25;;;15.49;77.60
25238;BME280;13185;50.872;5.306;2022-08-06T06:52:50;102455.38;;;15.50;77.42
25238;BME280;13185;50.872;5.306;2022-08-06T06:55:29;102452.53;;;15.53;77.45
25238;BME280;13185;50.872;5.306;2022-08-06T06:58:02;102456.66;;;15.59;77.09
25238;BME280;13185;50.872;5.306;2022-08-06T07:00:30;102457.31;;;15.64;77.46
25238;BME280;13185;50.872;5.306;2022-08-06T07:02:58;102458.84;;;15.68;77.23
25238;BME280;13185;50.872;5.306;2022-08-06T07:05:25;102460.53;;;15.85;77.10
25238;BME280;13185;50.872;5.306;2022-08-06T07:07:52;102454.75;;;16.05;76.38
25238;BME280;13185;50.872;5.306;2022-08-06T07:10:18;102459.09;;;16.22;75.82
25238;BME280;13185;50.872;5.306;2022-08-06T07:12:45;102462.16;;;16.44;75.52
25238;BME280;13185;50.872;5.306;2022-08-06T07:15:14;102468.44;;;16.59;74.55
25238;BME280;13185;50.872;5.306;2022-08-06T07:17:41;102467.88;;;16.68;74.42
25238;BME280;13185;50.872;5.306;2022-08-06T07:20:10;102468.00;;;16.94;73.85
25238;BME280;13185;50.872;5.306;2022-08-06T07:22:38;102470.75;;;17.34;73.42
25238;BME280;13185;50.872;5.306;2022-08-06T07:25:06;102474.50;;;17.58;71.95
25238;BME280;13185;50.872;5.306;2022-08-06T07:27:34;102468.16;;;17.72;71.38
25238;BME280;13185;50.872;5.306;2022-08-06T07:30:01;102465.13;;;17.89;70.92
25238;BME280;13185;50.872;5.306;2022-08-06T07:32:29;102466.84;;;18.03;69.46
25238;BME280;13185;50.872;5.306;2022-08-06T07:34:57;102466.31;;;18.10;68.77
25238;BME280;13185;50.872;5.306;2022-08-06T07:37:25;102470.56;;;18.27;68.75
25238;BME280;13185;50.872;5.306;2022-08-06T07:39:52;102472.69;;;18.48;67.97
25238;BME280;13185;50.872;5.306;2022-08-06T07:42:20;102471.91;;;18.58;67.81
25238;BME280;13185;50.872;5.306;2022-08-06T07:44:52;102473.66;;;18.72;67.82
25238;BME280;13185;50.872;5.306;2022-08-06T07:47:20;102468.09;;;18.73;67.40
25238;BME280;13185;50.872;5.306;2022-08-06T07:49:50;102472.34;;;18.78;67.40
25238;BME280;13185;50.872;5.306;2022-08-06T07:52:18;102470.88;;;18.85;66.89
25238;BME280;13185;50.872;5.306;2022-08-06T07:54:44;102469.69;;;18.89;66.82
25238;BME280;13185;50.872;5.306;2022-08-06T07:57:12;102487.78;;;19.01;66.76
25238;BME280;13185;50.872;5.306;2022-08-06T07:59:39;102468.81;;;19.12;66.46
25238;BME280;13185;50.872;5.306;2022-08-06T08:02:05;102474.25;;;19.12;66.21
25238;BME280;13185;50.872;5.306;2022-08-06T08:04:31;102473.50;;;19.10;65.93
25238;BME280;13185;50.872;5.306;2022-08-06T08:07:15;102477.22;;;19.09;65.53
25238;BME280;13185;50.872;5.306;2022-08-06T08:09:44;102476.63;;;19.17;66.18
25238;BME280;13185;50.872;5.306;2022-08-06T08:12:17;102468.00;;;19.23;65.53
25238;BME280;13185;50.872;5.306;2022-08-06T08:14:44;102472.75;;;19.32;65.43
25238;BME280;13185;50.872;5.306;2022-08-06T08:17:10;102472.50;;;19.35;64.37
25238;BME280;13185;50.872;5.306;2022-08-06T08:19:36;102473.03;;;19.40;64.31
25238;BME280;13185;50.872;5.306;2022-08-06T08:22:15;102474.28;;;19.47;63.88
25238;BME280;13185;50.872;5.306;2022-08-06T08:24:44;102469.38;;;19.52;63.35
25238;BME280;13185;50.872;5.306;2022-08-06T08:27:10;102475.88;;;19.63;63.74
25238;BME280;13185;50.872;5.306;2022-08-06T08:29:37;102462.25;;;19.63;62.95
25238;BME280;13185;50.872;5.306;2022-08-06T08:32:04;102462.00;;;19.66;62.19
25238;BME280;13185;50.872;5.306;2022-08-06T08:34:30;102456.56;;;19.66;61.75
25238;BME280;13185;50.872;5.306;2022-08-06T08:36:56;102467.97;;;19.71;61.60
25238;BME280;13185;50.872;5.306;2022-08-06T08:39:21;102457.97;;;19.71;61.79
25238;BME280;13185;50.872;5.306;2022-08-06T08:42:10;102468.34;;;19.77;62.76
25238;BME280;13185;50.872;5.306;2022-08-06T08:44:36;102461.78;;;19.80;60.07
25238;BME280;13185;50.872;5.306;2022-08-06T08:47:03;102460.06;;;19.90;60.95
25238;BME280;13185;50.872;5.306;2022-08-06T08:50:00;102459.34;;;19.99;60.44
25238;BME280;13185;50.872;5.306;2022-08-06T08:52:31;102456.75;;;20.09;60.34
25238;BME280;13185;50.872;5.306;2022-08-06T08:55:03;102451.31;;;20.20;58.89
25238;BME280;13185;50.872;5.306;2022-08-06T08:57:30;102451.31;;;20.31;59.45
25238;BME280;13185;50.872;5.306;2022-08-06T08:59:55;102450.84;;;20.49;57.77
25238;BME280;13185;50.872;5.306;2022-08-06T09:02:23;102452.06;;;20.67;58.06
25238;BME280;13185;50.872;5.306;2022-08-06T09:04:49;102457.50;;;20.78;57.64
25238;BME280;13185;50.872;5.306;2022-08-06T09:07:15;102452.03;;;20.89;54.89
25238;BME280;13185;50.872;5.306;2022-08-06T09:09:41;102449.53;;;20.97;55.15
25238;BME280;13185;50.872;5.306;2022-08-06T09:12:07;102455.53;;;21.12;55.30
25238;BME280;13185;50.872;5.306;2022-08-06T09:14:34;102456.50;;;21.22;55.50
25238;BME280;13185;50.872;5.306;2022-08-06T09:17:02;102456.78;;;21.19;54.05
25238;BME280;13185;50.872;5.306;2022-08-06T09:19:28;102459.34;;;21.32;54.21
25238;BME280;13185;50.872;5.306;2022-08-06T09:21:58;102458.97;;;21.37;52.75
25238;BME280;13185;50.872;5.306;2022-08-06T09:24:24;102461.50;;;21.17;52.05
25238;BME280;13185;50.872;5.306;2022-08-06T09:29:28;102461.00;;;21.12;52.65
25238;BME280;13185;50.872;5.306;2022-08-06T09:31:54;102456.63;;;21.21;51.83
25238;BME280;13185;50.872;5.306;2022-08-06T09:34:19;102464.16;;;21.40;53.11
25238;BME280;13185;50.872;5.306;2022-08-06T09:36:46;102462.31;;;21.61;52.52
25238;BME280;13185;50.872;5.306;2022-08-06T09:39:12;102463.97;;;21.73;52.36
25238;BME280;13185;50.872;5.306;2022-08-06T09:41:46;102454.97;;;21.82;50.88
25238;BME280;13185;50.872;5.306;2022-08-06T09:44:12;102465.78;;;21.84;50.27
25238;BME280;13185;50.872;5.306;2022-08-06T09:46:43;102462.75;;;21.66;50.02
25238;BME280;13185;50.872;5.306;2022-08-06T09:49:11;102464.31;;;21.59;50.58
25238;BME280;13185;50.872;5.306;2022-08-06T09:51:36;102472.66;;;21.57;50.38
25238;BME280;13185;50.872;5.306;2022-08-06T09:54:05;102470.16;;;21.75;48.93
25238;BME280;13185;50.872;5.306;2022-08-06T09:56:31;102476.09;;;21.80;48.86
25238;BME280;13185;50.872;5.306;2022-08-06T09:59:02;102470.09;;;21.66;48.47
25238;BME280;13185;50.872;5.306;2022-08-06T10:01:28;102466.09;;;21.49;49.00
25238;BME280;13185;50.872;5.306;2022-08-06T10:03:56;102466.28;;;21.57;49.48
25238;BME280;13185;50.872;5.306;2022-08-06T10:06:22;102466.34;;;21.67;48.74
25238;BME280;13185;50.872;5.306;2022-08-06T10:08:49;102464.69;;;21.75;47.84
25238;BME280;13185;50.872;5.306;2022-08-06T10:11:15;102468.97;;;21.89;48.81
25238;BME280;13185;50.872;5.306;2022-08-06T10:13:56;102470.84;;;22.09;48.03
25238;BME280;13185;50.872;5.306;2022-08-06T10:16:22;102470.44;;;22.14;47.40
25238;BME280;13185;50.872;5.306;2022-08-06T10:18:56;102459.00;;;22.30;48.22
25238;BME280;13185;50.872;5.306;2022-08-06T10:21:32;102469.44;;;22.45;48.05
25238;BME280;13185;50.872;5.306;2022-08-06T10:24:02;102464.13;;;22.54;46.92
25238;BME280;13185;50.872;5.306;2022-08-06T10:26:30;102463.34;;;22.72;46.95
25238;BME280;13185;50.872;5.306;2022-08-06T10:29:06;102458.34;;;22.87;46.49
25238;BME280;13185;50.872;5.306;2022-08-06T10:31:36;102456.34;;;22.89;45.72
25238;BME280;13185;50.872;5.306;2022-08-06T10:36:43;102455.66;;;22.97;46.28
25238;BME280;13185;50.872;5.306;2022-08-06T10:39:10;102461.53;;;23.02;44.81
25238;BME280;13185;50.872;5.306;2022-08-06T10:41:36;102453.31;;;23.02;44.60
25238;BME280;13185;50.872;5.306;2022-08-06T10:44:04;102454.19;;;23.12;43.98
25238;BME280;13185;50.872;5.306;2022-08-06T10:46:31;102458.81;;;23.21;44.55
25238;BME280;13185;50.872;5.306;2022-08-06T10:48:58;102456.09;;;23.31;43.31
25238;BME280;13185;50.872;5.306;2022-08-06T10:51:24;102448.59;;;23.33;44.06
25238;BME280;13185;50.872;5.306;2022-08-06T10:53:50;102455.78;;;23.34;43.30
25238;BME280;13185;50.872;5.306;2022-08-06T10:56:17;102448.59;;;23.33;42.80
25238;BME280;13185;50.872;5.306;2022-08-06T10:58:43;102450.63;;;23.31;42.36
25238;BME280;13185;50.872;5.306;2022-08-06T11:01:38;102438.50;;;23.43;42.80
25238;BME280;13185;50.872;5.306;2022-08-06T11:10:09;102436.78;;;23.42;42.26
25238;BME280;13185;50.872;5.306;2022-08-06T11:15:06;102436.19;;;23.77;43.02
25238;BME280;13185;50.872;5.306;2022-08-06T11:17:53;102436.78;;;23.61;40.13
25238;BME280;13185;50.872;5.306;2022-08-06T11:23:20;102428.66;;;23.99;41.21
25238;BME280;13185;50.872;5.306;2022-08-06T11:25:51;102422.63;;;24.23;41.38
25238;BME280;13185;50.872;5.306;2022-08-06T11:31:05;102439.00;;;23.95;41.58
25238;BME280;13185;50.872;5.306;2022-08-06T11:36:03;102424.03;;;23.99;41.01
25238;BME280;13185;50.872;5.306;2022-08-06T11:41:21;102428.28;;;23.65;40.82
25238;BME280;13185;50.872;5.306;2022-08-06T11:51:47;102429.56;;;23.70;41.69
25238;BME280;13185;50.872;5.306;2022-08-06T11:54:24;102418.03;;;23.76;40.33
25238;BME280;13185;50.872;5.306;2022-08-06T12:02:07;102409.47;;;24.26;39.68
25238;BME280;13185;50.872;5.306;2022-08-06T12:09:41;102404.13;;;24.62;38.82
25238;BME280;13185;50.872;5.306;2022-08-06T12:14:51;102401.53;;;24.60;38.94
25238;BME280;13185;50.872;5.306;2022-08-06T12:17:21;102397.00;;;24.69;38.73
25238;BME280;13185;50.872;5.306;2022-08-06T12:19:52;102400.78;;;24.86;37.98
25238;BME280;13185;50.872;5.306;2022-08-06T12:22:19;102397.47;;;25.00;37.35
25238;BME280;13185;50.872;5.306;2022-08-06T12:24:48;102396.63;;;24.99;35.82
25238;BME280;13185;50.872;5.306;2022-08-06T12:27:14;102395.72;;;24.91;35.76
25238;BME280;13185;50.872;5.306;2022-08-06T12:29:41;102404.06;;;24.89;36.89
25238;BME280;13185;50.872;5.306;2022-08-06T12:32:23;102402.06;;;24.91;37.26
25238;BME280;13185;50.872;5.306;2022-08-06T12:34:51;102387.38;;;25.00;37.38
25238;BME280;13185;50.872;5.306;2022-08-06T12:37:17;102388.59;;;25.16;36.89
25238;BME280;13185;50.872;5.306;2022-08-06T12:39:44;102388.66;;;25.24;37.76
25238;BME280;13185;50.872;5.306;2022-08-06T12:42:30;102387.47;;;25.44;36.98
25238;BME280;13185;50.872;5.306;2022-08-06T12:44:56;102381.44;;;25.67;36.23
25238;BME280;13185;50.872;5.306;2022-08-06T12:47:22;102384.00;;;25.68;36.00
25238;BME280;13185;50.872;5.306;2022-08-06T12:49:49;102382.75;;;25.62;35.86
25238;BME280;13185;50.872;5.306;2022-08-06T12:52:16;102374.97;;;25.32;35.52
25238;BME280;13185;50.872;5.306;2022-08-06T12:54:43;102382.06;;;25.35;35.61
25238;BME280;13185;50.872;5.306;2022-08-06T12:57:18;102380.09;;;25.45;35.70
25238;BME280;13185;50.872;5.306;2022-08-06T12:59:44;102376.22;;;25.55;35.30
25238;BME280;13185;50.872;5.306;2022-08-06T13:02:10;102367.78;;;25.75;34.87
25238;BME280;13185;50.872;5.306;2022-08-06T13:04:38;102369.63;;;26.00;34.86
25238;BME280;13185;50.872;5.306;2022-08-06T13:07:04;102367.63;;;26.10;33.70
25238;BME280;13185;50.872;5.306;2022-08-06T13:09:30;102370.59;;;26.17;32.38
25238;BME280;13185;50.872;5.306;2022-08-06T13:11:56;102365.22;;;26.07;33.40
25238;BME280;13185;50.872;5.306;2022-08-06T13:14:21;102361.63;;;26.15;33.23
25238;BME280;13185;50.872;5.306;2022-08-06T13:16:48;102368.38;;;26.29;33.11
25238;BME280;13185;50.872;5.306;2022-08-06T13:19:16;102367.19;;;26.31;33.01
25238;BME280;13185;50.872;5.306;2022-08-06T13:21:44;102364.69;;;26.12;33.12
25238;BME280;13185;50.872;5.306;2022-08-06T13:24:10;102362.47;;;26.07;33.69
25238;BME280;13185;50.872;5.306;2022-08-06T13:26:51;102363.66;;;26.13;34.07
25238;BME280;13185;50.872;5.306;2022-08-06T13:29:22;102365.09;;;26.25;34.10
25238;BME280;13185;50.872;5.306;2022-08-06T13:34:28;102354.09;;;26.25;33.13
25238;BME280;13185;50.872;5.306;2022-08-06T13:36:56;102342.50;;;26.39;33.07
25238;BME280;13185;50.872;5.306;2022-08-06T13:39:30;102348.88;;;26.56;33.08
25238;BME280;13185;50.872;5.306;2022-08-06T13:42:08;102349.63;;;26.74;32.98
25238;BME280;13185;50.872;5.306;2022-08-06T13:44:39;102359.63;;;26.92;32.85
25238;BME280;13185;50.872;5.306;2022-08-06T13:47:05;102344.47;;;26.71;32.58
25238;BME280;13185;50.872;5.306;2022-08-06T13:49:32;102342.34;;;26.41;33.45
25238;BME280;13185;50.872;5.306;2022-08-06T13:51:57;102340.28;;;26.51;33.82
25238;BME280;13185;50.872;5.306;2022-08-06T13:54:24;102344.47;;;26.88;33.62
25238;BME280;13185;50.872;5.306;2022-08-06T13:56:51;102340.34;;;26.84;32.68
25238;BME280;13185;50.872;5.306;2022-08-06T13:59:19;102341.53;;;26.65;32.50
25238;BME280;13185;50.872;5.306;2022-08-06T14:01:45;102334.34;;;26.30;33.20
25238;BME280;13185;50.872;5.306;2022-08-06T14:04:17;102335.06;;;25.89;32.94
25238;BME280;13185;50.872;5.306;2022-08-06T14:06:48;102331.97;;;25.67;33.79
25238;BME280;13185;50.872;5.306;2022-08-06T14:09:15;102333.91;;;26.00;33.98
25238;BME280;13185;50.872;5.306;2022-08-06T14:11:42;102333.56;;;26.37;32.67
25238;BME280;13185;50.872;5.306;2022-08-06T14:14:07;102323.28;;;26.48;33.15
25238;BME280;13185;50.872;5.306;2022-08-06T14:16:33;102339.28;;;26.76;33.11